sensor_id;sensor_type;location;lat;lon;timestamp;temperature;humidity
79760;DHT22;70512;42.122;24.732;2023-09-12T00:01:34;18.50;44.80
79760;DHT22;70512;42.122;24.732;2023-09-12T00:04:02;18.50;45.00
79760;DHT22;70512;42.122;24.732;2023-09-12T00:06:29;18.50;43.40
79760;DHT22;70512;42.122;24.732;2023-09-12T00:08:57;18.50;43.00
79760;DHT22;70512;42.122;24.732;2023-09-12T00:11:25;18.50;43.60
79760;DHT22;70512;42.122;24.732;2023-09-12T00:13:52;18.60;44.80
79760;DHT22;70512;42.122;24.732;2023-09-12T00:16:20;18.60;44.70
79760;DHT22;70512;42.122;24.732;2023-09-12T00:18:48;18.50;45.30
79760;DHT22;70512;42.122;24.732;2023-09-12T00:21:15;18.50;46.30
79760;DHT22;70512;42.122;24.732;2023-09-12T00:23:43;18.50;46.70
79760;DHT22;70512;42.122;24.732;2023-09-12T00:26:10;18.50;46.90
79760;DHT22;70512;42.122;24.732;2023-09-12T00:28:38;18.40;47.10
79760;DHT22;70512;42.122;24.732;2023-09-12T00:31:06;18.30;47.50
79760;DHT22;70512;42.122;24.732;2023-09-12T00:33:34;18.30;48.10
79760;DHT22;70512;42.122;24.732;2023-09-12T00:36:02;18.20;48.50
79760;DHT22;70512;42.122;24.732;2023-09-12T00:38:29;18.20;48.90
79760;DHT22;70512;42.122;24.732;2023-09-12T00:40:57;18.10;49.20
79760;DHT22;70512;42.122;24.732;2023-09-12T00:43:24;18.10;49.70
79760;DHT22;70512;42.122;24.732;2023-09-12T00:45:52;18.00;49.60
79760;DHT22;70512;42.122;24.732;2023-09-12T00:48:20;17.90;50.10
79760;DHT22;70512;42.122;24.732;2023-09-12T00:50:50;17.90;49.90
79760;DHT22;70512;42.122;24.732;2023-09-12T00:53:19;17.80;50.70
79760;DHT22;70512;42.122;24.732;2023-09-12T00:55:50;17.80;50.70
79760;DHT22;70512;42.122;24.732;2023-09-12T00:58:18;17.60;51.30
79760;DHT22;70512;42.122;24.732;2023-09-12T01:00:46;17.50;51.70
79760;DHT22;70512;42.122;24.732;2023-09-12T01:03:14;17.50;51.90
79760;DHT22;70512;42.122;24.732;2023-09-12T01:05:43;17.40;52.50
79760;DHT22;70512;42.122;24.732;2023-09-12T01:08:11;17.30;52.50
79760;DHT22;70512;42.122;24.732;2023-09-12T01:10:38;17.20;53.00
79760;DHT22;70512;42.122;24.732;2023-09-12T01:13:08;17.20;53.20
79760;DHT22;70512;42.122;24.732;2023-09-12T01:15:36;17.10;53.50
79760;DHT22;70512;42.122;24.732;2023-09-12T01:18:04;16.90;54.40
79760;DHT22;70512;42.122;24.732;2023-09-12T01:20:33;16.80;54.20
79760;DHT22;70512;42.122;24.732;2023-09-12T01:23:25;16.80;54.10
79760;DHT22;70512;42.122;24.732;2023-09-12T01:26:17;16.90;54.00
79760;DHT22;70512;42.122;24.732;2023-09-12T01:28:45;16.90;54.20
79760;DHT22;70512;42.122;24.732;2023-09-12T01:31:13;17.00;54.00
79760;DHT22;70512;42.122;24.732;2023-09-12T01:33:43;17.10;54.00
79760;DHT22;70512;42.122;24.732;2023-09-12T01:36:11;17.10;53.90
79760;DHT22;70512;42.122;24.732;2023-09-12T01:38:38;17.10;55.30
79760;DHT22;70512;42.122;24.732;2023-09-12T01:41:06;17.10;54.60
79760;DHT22;70512;42.122;24.732;2023-09-12T01:43:36;16.90;54.40
79760;DHT22;70512;42.122;24.732;2023-09-12T01:46:06;16.90;54.60
79760;DHT22;70512;42.122;24.732;2023-09-12T01:48:35;16.80;54.90
79760;DHT22;70512;42.122;24.732;2023-09-12T01:51:04;16.90;54.70
79760;DHT22;70512;42.122;24.732;2023-09-12T01:53:33;16.90;55.40
79760;DHT22;70512;42.122;24.732;2023-09-12T01:56:02;16.90;55.50
79760;DHT22;70512;42.122;24.732;2023-09-12T01:58:31;16.90;55.60
79760;DHT22;70512;42.122;24.732;2023-09-12T02:00:58;16.90;55.50
79760;DHT22;70512;42.122;24.732;2023-09-12T02:03:26;16.90;55.40
79760;DHT22;70512;42.122;24.732;2023-09-12T02:05:54;16.90;55.50
79760;DHT22;70512;42.122;24.732;2023-09-12T02:08:21;16.90;55.60
79760;DHT22;70512;42.122;24.732;2023-09-12T02:10:49;16.90;55.60
79760;DHT22;70512;42.122;24.732;2023-09-12T02:13:16;16.90;55.80
79760;DHT22;70512;42.122;24.732;2023-09-12T02:15:44;16.90;55.90
79760;DHT22;70512;42.122;24.732;2023-09-12T02:18:11;16.80;55.70
79760;DHT22;70512;42.122;24.732;2023-09-12T02:20:41;16.90;55.50
79760;DHT22;70512;42.122;24.732;2023-09-12T02:23:10;16.80;55.80
79760;DHT22;70512;42.122;24.732;2023-09-12T02:25:37;16.70;55.90
79760;DHT22;70512;42.122;24.732;2023-09-12T02:28:05;16.70;56.20
79760;DHT22;70512;42.122;24.732;2023-09-12T02:30:33;16.60;56.40
79760;DHT22;70512;42.122;24.732;2023-09-12T02:33:00;16.60;56.50
79760;DHT22;70512;42.122;24.732;2023-09-12T02:35:28;16.70;56.60
79760;DHT22;70512;42.122;24.732;2023-09-12T02:37:56;16.60;56.90
79760;DHT22;70512;42.122;24.732;2023-09-12T02:40:24;16.70;56.90
79760;DHT22;70512;42.122;24.732;2023-09-12T02:42:52;16.60;57.60
79760;DHT22;70512;42.122;24.732;2023-09-12T02:45:19;16.60;58.40
79760;DHT22;70512;42.122;24.732;2023-09-12T02:47:47;16.50;58.90
79760;DHT22;70512;42.122;24.732;2023-09-12T02:50:15;16.50;59.00
79760;DHT22;70512;42.122;24.732;2023-09-12T02:52:42;16.40;59.40
79760;DHT22;70512;42.122;24.732;2023-09-12T02:55:10;16.40;59.80
79760;DHT22;70512;42.122;24.732;2023-09-12T02:57:37;16.30;59.80
79760;DHT22;70512;42.122;24.732;2023-09-12T03:00:11;16.20;59.90
79760;DHT22;70512;42.122;24.732;2023-09-12T03:02:35;16.10;59.80
79760;DHT22;70512;42.122;24.732;2023-09-12T03:05:03;16.10;60.40
79760;DHT22;70512;42.122;24.732;2023-09-12T03:07:31;16.10;60.80
79760;DHT22;70512;42.122;24.732;2023-09-12T03:09:59;16.00;60.90
79760;DHT22;70512;42.122;24.732;2023-09-12T03:12:27;16.00;60.70
79760;DHT22;70512;42.122;24.732;2023-09-12T03:14:54;16.10;60.70
79760;DHT22;70512;42.122;24.732;2023-09-12T03:17:22;16.10;60.70
79760;DHT22;70512;42.122;24.732;2023-09-12T03:19:50;16.10;61.20
79760;DHT22;70512;42.122;24.732;2023-09-12T03:22:17;16.00;61.40
79760;DHT22;70512;42.122;24.732;2023-09-12T03:24:45;16.00;61.70
79760;DHT22;70512;42.122;24.732;2023-09-12T03:27:12;16.00;62.30
79760;DHT22;70512;42.122;24.732;2023-09-12T03:29:42;16.00;62.30
79760;DHT22;70512;42.122;24.732;2023-09-12T03:32:09;16.00;62.50
79760;DHT22;70512;42.122;24.732;2023-09-12T03:34:37;15.90;62.20
79760;DHT22;70512;42.122;24.732;2023-09-12T03:37:04;15.90;62.20
79760;DHT22;70512;42.122;24.732;2023-09-12T03:39:32;15.90;62.80
79760;DHT22;70512;42.122;24.732;2023-09-12T03:42:00;16.00;63.00
79760;DHT22;70512;42.122;24.732;2023-09-12T03:44:27;16.00;63.40
79760;DHT22;70512;42.122;24.732;2023-09-12T03:46:55;15.90;63.30
79760;DHT22;70512;42.122;24.732;2023-09-12T03:49:23;15.90;63.60
79760;DHT22;70512;42.122;24.732;2023-09-12T03:51:50;15.80;63.90
79760;DHT22;70512;42.122;24.732;2023-09-12T03:54:18;15.70;63.90
79760;DHT22;70512;42.122;24.732;2023-09-12T03:56:45;15.60;64.20
79760;DHT22;70512;42.122;24.732;2023-09-12T03:59:13;15.60;64.30
79760;DHT22;70512;42.122;24.732;2023-09-12T04:01:46;15.60;64.50
79760;DHT22;70512;42.122;24.732;2023-09-12T04:04:14;15.50;64.40
79760;DHT22;70512;42.122;24.732;2023-09-12T04:06:41;15.50;64.60
79760;DHT22;70512;42.122;24.732;2023-09-12T04:09:09;15.50;64.60
79760;DHT22;70512;42.122;24.732;2023-09-12T04:11:37;15.40;64.90
79760;DHT22;70512;42.122;24.732;2023-09-12T04:14:04;15.40;65.20
79760;DHT22;70512;42.122;24.732;2023-09-12T04:16:32;15.30;65.50
79760;DHT22;70512;42.122;24.732;2023-09-12T04:19:00;15.20;66.00
79760;DHT22;70512;42.122;24.732;2023-09-12T04:21:27;15.20;66.30
79760;DHT22;70512;42.122;24.732;2023-09-12T04:23:55;15.20;66.00
79760;DHT22;70512;42.122;24.732;2023-09-12T04:26:22;15.30;65.70
79760;DHT22;70512;42.122;24.732;2023-09-12T04:28:50;15.40;65.30
79760;DHT22;70512;42.122;24.732;2023-09-12T04:31:18;15.60;64.80
79760;DHT22;70512;42.122;24.732;2023-09-12T04:33:45;15.70;64.50
79760;DHT22;70512;42.122;24.732;2023-09-12T04:36:13;15.60;64.50
79760;DHT22;70512;42.122;24.732;2023-09-12T04:38:40;15.50;64.60
79760;DHT22;70512;42.122;24.732;2023-09-12T04:41:08;15.60;64.50
79760;DHT22;70512;42.122;24.732;2023-09-12T04:43:36;15.60;64.60
79760;DHT22;70512;42.122;24.732;2023-09-12T04:46:04;15.60;64.40
79760;DHT22;70512;42.122;24.732;2023-09-12T04:48:31;15.60;64.40
79760;DHT22;70512;42.122;24.732;2023-09-12T04:50:59;15.60;64.40
79760;DHT22;70512;42.122;24.732;2023-09-12T04:53:26;15.60;64.30
79760;DHT22;70512;42.122;24.732;2023-09-12T04:55:55;15.60;64.10
79760;DHT22;70512;42.122;24.732;2023-09-12T04:58:23;15.70;63.90
79760;DHT22;70512;42.122;24.732;2023-09-12T05:00:51;15.70;63.70
79760;DHT22;70512;42.122;24.732;2023-09-12T05:03:19;15.80;63.60
79760;DHT22;70512;42.122;24.732;2023-09-12T05:05:48;15.80;63.10
79760;DHT22;70512;42.122;24.732;2023-09-12T05:08:16;15.90;63.00
79760;DHT22;70512;42.122;24.732;2023-09-12T05:10:47;16.00;62.50
79760;DHT22;70512;42.122;24.732;2023-09-12T05:13:16;16.00;61.60
79760;DHT22;70512;42.122;24.732;2023-09-12T05:15:44;16.10;61.40
79760;DHT22;70512;42.122;24.732;2023-09-12T05:18:12;16.20;61.20
79760;DHT22;70512;42.122;24.732;2023-09-12T05:20:39;16.20;61.50
79760;DHT22;70512;42.122;24.732;2023-09-12T05:23:07;16.30;61.20
79760;DHT22;70512;42.122;24.732;2023-09-12T05:25:34;16.40;60.80
79760;DHT22;70512;42.122;24.732;2023-09-12T05:28:02;16.40;60.40
79760;DHT22;70512;42.122;24.732;2023-09-12T05:30:31;16.50;60.00
79760;DHT22;70512;42.122;24.732;2023-09-12T05:32:58;16.60;59.40
79760;DHT22;70512;42.122;24.732;2023-09-12T05:35:26;16.70;59.30
79760;DHT22;70512;42.122;24.732;2023-09-12T05:37:54;16.80;58.90
79760;DHT22;70512;42.122;24.732;2023-09-12T05:40:21;17.00;58.50
79760;DHT22;70512;42.122;24.732;2023-09-12T05:42:52;17.10;58.60
79760;DHT22;70512;42.122;24.732;2023-09-12T05:45:19;17.20;58.30
79760;DHT22;70512;42.122;24.732;2023-09-12T05:47:47;17.30;58.40
79760;DHT22;70512;42.122;24.732;2023-09-12T05:50:14;17.40;58.40
79760;DHT22;70512;42.122;24.732;2023-09-12T05:52:42;17.40;56.80
79760;DHT22;70512;42.122;24.732;2023-09-12T05:55:09;17.50;58.10
79760;DHT22;70512;42.122;24.732;2023-09-12T05:57:37;17.50;57.30
79760;DHT22;70512;42.122;24.732;2023-09-12T06:00:05;17.40;58.00
79760;DHT22;70512;42.122;24.732;2023-09-12T06:02:35;17.40;58.00
79760;DHT22;70512;42.122;24.732;2023-09-12T06:05:02;17.50;57.30
79760;DHT22;70512;42.122;24.732;2023-09-12T06:07:30;17.50;58.10
79760;DHT22;70512;42.122;24.732;2023-09-12T06:09:58;17.50;57.70
79760;DHT22;70512;42.122;24.732;2023-09-12T06:12:26;17.50;57.60
79760;DHT22;70512;42.122;24.732;2023-09-12T06:14:54;17.60;57.50
79760;DHT22;70512;42.122;24.732;2023-09-12T06:17:22;17.60;57.50
79760;DHT22;70512;42.122;24.732;2023-09-12T06:19:50;17.70;57.00
79760;DHT22;70512;42.122;24.732;2023-09-12T06:22:18;17.80;57.20
79760;DHT22;70512;42.122;24.732;2023-09-12T06:24:48;17.80;57.30
79760;DHT22;70512;42.122;24.732;2023-09-12T06:27:15;17.90;57.70
79760;DHT22;70512;42.122;24.732;2023-09-12T06:29:48;17.90;57.10
79760;DHT22;70512;42.122;24.732;2023-09-12T06:32:19;18.10;57.30
79760;DHT22;70512;42.122;24.732;2023-09-12T06:34:47;18.20;56.60
79760;DHT22;70512;42.122;24.732;2023-09-12T06:37:14;18.30;55.80
79760;DHT22;70512;42.122;24.732;2023-09-12T06:39:42;18.40;56.00
79760;DHT22;70512;42.122;24.732;2023-09-12T06:42:10;18.60;55.50
79760;DHT22;70512;42.122;24.732;2023-09-12T06:44:38;18.70;55.10
79760;DHT22;70512;42.122;24.732;2023-09-12T06:47:06;18.80;54.90
79760;DHT22;70512;42.122;24.732;2023-09-12T06:49:33;19.00;54.70
79760;DHT22;70512;42.122;24.732;2023-09-12T06:52:03;19.10;53.60
79760;DHT22;70512;42.122;24.732;2023-09-12T06:54:32;19.20;52.60
79760;DHT22;70512;42.122;24.732;2023-09-12T06:57:00;19.30;52.10
79760;DHT22;70512;42.122;24.732;2023-09-12T06:59:27;19.40;52.00
79760;DHT22;70512;42.122;24.732;2023-09-12T07:01:55;19.60;51.40
79760;DHT22;70512;42.122;24.732;2023-09-12T07:04:25;19.60;51.50
79760;DHT22;70512;42.122;24.732;2023-09-12T07:06:52;19.70;51.00
79760;DHT22;70512;42.122;24.732;2023-09-12T07:09:20;19.80;50.90
79760;DHT22;70512;42.122;24.732;2023-09-12T07:11:48;19.80;50.50
79760;DHT22;70512;42.122;24.732;2023-09-12T07:14:16;19.90;51.10
79760;DHT22;70512;42.122;24.732;2023-09-12T07:16:43;20.10;50.70
79760;DHT22;70512;42.122;24.732;2023-09-12T07:19:11;20.20;50.40
79760;DHT22;70512;42.122;24.732;2023-09-12T07:21:39;20.20;50.50
79760;DHT22;70512;42.122;24.732;2023-09-12T07:24:07;20.20;50.50
79760;DHT22;70512;42.122;24.732;2023-09-12T07:26:35;20.40;51.00
79760;DHT22;70512;42.122;24.732;2023-09-12T07:29:03;20.40;51.50
79760;DHT22;70512;42.122;24.732;2023-09-12T07:31:32;20.60;51.50
79760;DHT22;70512;42.122;24.732;2023-09-12T07:33:59;20.60;51.80
79760;DHT22;70512;42.122;24.732;2023-09-12T07:36:27;20.70;51.70
79760;DHT22;70512;42.122;24.732;2023-09-12T07:38:55;20.80;51.80
79760;DHT22;70512;42.122;24.732;2023-09-12T07:41:23;20.80;51.70
79760;DHT22;70512;42.122;24.732;2023-09-12T07:43:50;20.90;51.50
79760;DHT22;70512;42.122;24.732;2023-09-12T07:46:18;21.00;51.50
79760;DHT22;70512;42.122;24.732;2023-09-12T07:48:46;21.10;50.60
79760;DHT22;70512;42.122;24.732;2023-09-12T07:51:15;21.20;50.30
79760;DHT22;70512;42.122;24.732;2023-09-12T07:53:44;21.30;49.90
79760;DHT22;70512;42.122;24.732;2023-09-12T07:56:11;21.40;50.20
79760;DHT22;70512;42.122;24.732;2023-09-12T07:58:39;21.50;49.70
79760;DHT22;70512;42.122;24.732;2023-09-12T08:01:08;21.60;49.10
79760;DHT22;70512;42.122;24.732;2023-09-12T08:03:37;21.70;48.50
79760;DHT22;70512;42.122;24.732;2023-09-12T08:06:06;21.90;48.90
79760;DHT22;70512;42.122;24.732;2023-09-12T08:08:34;22.00;49.00
79760;DHT22;70512;42.122;24.732;2023-09-12T08:11:02;22.10;48.10
79760;DHT22;70512;42.122;24.732;2023-09-12T08:13:30;22.20;46.60
79760;DHT22;70512;42.122;24.732;2023-09-12T08:15:58;22.40;46.80
79760;DHT22;70512;42.122;24.732;2023-09-12T08:18:30;22.50;46.80
79760;DHT22;70512;42.122;24.732;2023-09-12T08:20:58;22.50;46.50
79760;DHT22;70512;42.122;24.732;2023-09-12T08:23:26;22.50;46.50
79760;DHT22;70512;42.122;24.732;2023-09-12T08:25:54;22.60;46.50
79760;DHT22;70512;42.122;24.732;2023-09-12T08:28:21;22.80;46.50
79760;DHT22;70512;42.122;24.732;2023-09-12T08:30:50;22.90;45.60
79760;DHT22;70512;42.122;24.732;2023-09-12T08:33:18;23.00;46.20
79760;DHT22;70512;42.122;24.732;2023-09-12T08:35:46;23.20;45.30
79760;DHT22;70512;42.122;24.732;2023-09-12T08:38:14;23.30;44.80
79760;DHT22;70512;42.122;24.732;2023-09-12T08:40:47;23.40;44.50
79760;DHT22;70512;42.122;24.732;2023-09-12T08:43:10;23.50;44.00
79760;DHT22;70512;42.122;24.732;2023-09-12T08:45:38;23.60;44.10
79760;DHT22;70512;42.122;24.732;2023-09-12T08:48:06;23.70;44.00
79760;DHT22;70512;42.122;24.732;2023-09-12T08:50:35;23.90;43.80
79760;DHT22;70512;42.122;24.732;2023-09-12T08:53:03;24.10;43.50
79760;DHT22;70512;42.122;24.732;2023-09-12T08:55:31;24.10;42.90
79760;DHT22;70512;42.122;24.732;2023-09-12T08:58:03;24.30;43.10
79760;DHT22;70512;42.122;24.732;2023-09-12T09:00:32;24.40;43.00
79760;DHT22;70512;42.122;24.732;2023-09-12T09:03:00;24.50;41.70
79760;DHT22;70512;42.122;24.732;2023-09-12T09:05:29;24.70;42.00
79760;DHT22;70512;42.122;24.732;2023-09-12T09:07:57;24.80;41.70
79760;DHT22;70512;42.122;24.732;2023-09-12T09:10:25;24.90;41.40
79760;DHT22;70512;42.122;24.732;2023-09-12T09:12:54;24.90;40.90
79760;DHT22;70512;42.122;24.732;2023-09-12T09:15:29;24.90;40.80
79760;DHT22;70512;42.122;24.732;2023-09-12T09:17:58;25.00;40.40
79760;DHT22;70512;42.122;24.732;2023-09-12T09:20:35;24.90;40.40
79760;DHT22;70512;42.122;24.732;2023-09-12T09:23:05;25.00;41.30
79760;DHT22;70512;42.122;24.732;2023-09-12T09:25:34;25.10;39.90
79760;DHT22;70512;42.122;24.732;2023-09-12T09:28:05;25.20;39.70
79760;DHT22;70512;42.122;24.732;2023-09-12T09:30:42;25.30;39.30
79760;DHT22;70512;42.122;24.732;2023-09-12T09:33:10;25.30;39.00
79760;DHT22;70512;42.122;24.732;2023-09-12T09:35:43;25.40;38.30
79760;DHT22;70512;42.122;24.732;2023-09-12T09:38:12;25.50;39.10
79760;DHT22;70512;42.122;24.732;2023-09-12T09:40:41;25.50;37.70
79760;DHT22;70512;42.122;24.732;2023-09-12T09:43:10;25.60;37.70
79760;DHT22;70512;42.122;24.732;2023-09-12T09:45:45;25.70;37.60
79760;DHT22;70512;42.122;24.732;2023-09-12T09:48:21;25.90;37.60
79760;DHT22;70512;42.122;24.732;2023-09-12T09:50:49;26.00;36.30
79760;DHT22;70512;42.122;24.732;2023-09-12T09:53:28;26.10;36.50
79760;DHT22;70512;42.122;24.732;2023-09-12T09:55:52;26.30;36.10
79760;DHT22;70512;42.122;24.732;2023-09-12T09:58:22;26.40;35.50
79760;DHT22;70512;42.122;24.732;2023-09-12T10:00:51;26.50;33.90
79760;DHT22;70512;42.122;24.732;2023-09-12T10:03:21;26.40;33.80
79760;DHT22;70512;42.122;24.732;2023-09-12T10:05:51;26.50;34.80
79760;DHT22;70512;42.122;24.732;2023-09-12T10:08:21;26.60;33.70
79760;DHT22;70512;42.122;24.732;2023-09-12T10:10:51;26.70;33.20
79760;DHT22;70512;42.122;24.732;2023-09-12T10:13:19;26.90;33.70
79760;DHT22;70512;42.122;24.732;2023-09-12T10:15:49;27.10;33.90
79760;DHT22;70512;42.122;24.732;2023-09-12T10:18:19;27.30;33.20
79760;DHT22;70512;42.122;24.732;2023-09-12T10:20:50;27.40;32.40
79760;DHT22;70512;42.122;24.732;2023-09-12T10:23:33;27.40;32.90
79760;DHT22;70512;42.122;24.732;2023-09-12T10:25:55;27.60;33.00
79760;DHT22;70512;42.122;24.732;2023-09-12T10:28:25;27.80;32.20
79760;DHT22;70512;42.122;24.732;2023-09-12T10:30:54;27.90;32.10
79760;DHT22;70512;42.122;24.732;2023-09-12T10:33:23;28.00;31.70
79760;DHT22;70512;42.122;24.732;2023-09-12T10:35:52;28.10;31.10
79760;DHT22;70512;42.122;24.732;2023-09-12T10:38:21;28.30;31.10
79760;DHT22;70512;42.122;24.732;2023-09-12T10:40:52;28.40;30.60
79760;DHT22;70512;42.122;24.732;2023-09-12T10:43:21;28.50;30.60
79760;DHT22;70512;42.122;24.732;2023-09-12T10:45:52;28.60;30.80
79760;DHT22;70512;42.122;24.732;2023-09-12T10:48:19;28.70;30.70
79760;DHT22;70512;42.122;24.732;2023-09-12T10:50:47;28.80;30.30
79760;DHT22;70512;42.122;24.732;2023-09-12T10:53:16;28.90;30.70
79760;DHT22;70512;42.122;24.732;2023-09-12T10:56:13;29.40;30.80
79760;DHT22;70512;42.122;24.732;2023-09-12T10:58:28;31.20;29.10
79760;DHT22;70512;42.122;24.732;2023-09-12T11:01:22;34.40;25.90
79760;DHT22;70512;42.122;24.732;2023-09-12T11:03:51;36.80;23.40
79760;DHT22;70512;42.122;24.732;2023-09-12T11:06:31;39.30;21.40
79760;DHT22;70512;42.122;24.732;2023-09-12T11:11:47;41.60;19.70
79760;DHT22;70512;42.122;24.732;2023-09-12T11:14:15;43.10;18.00
79760;DHT22;70512;42.122;24.732;2023-09-12T11:16:43;44.30;17.40
79760;DHT22;70512;42.122;24.732;2023-09-12T11:19:20;45.50;16.30
79760;DHT22;70512;42.122;24.732;2023-09-12T11:21:54;46.30;15.90
79760;DHT22;70512;42.122;24.732;2023-09-12T11:24:23;46.70;15.20
79760;DHT22;70512;42.122;24.732;2023-09-12T11:26:55;47.10;15.20
79760;DHT22;70512;42.122;24.732;2023-09-12T11:29:29;46.80;15.40
79760;DHT22;70512;42.122;24.732;2023-09-12T11:31:58;47.10;15.70
79760;DHT22;70512;42.122;24.732;2023-09-12T11:34:27;48.00;14.50
79760;DHT22;70512;42.122;24.732;2023-09-12T11:36:57;48.50;14.40
79760;DHT22;70512;42.122;24.732;2023-09-12T11:39:33;48.60;14.80
79760;DHT22;70512;42.122;24.732;2023-09-12T11:41:59;49.20;14.00
79760;DHT22;70512;42.122;24.732;2023-09-12T11:44:27;49.70;13.90
79760;DHT22;70512;42.122;24.732;2023-09-12T11:47:01;48.00;14.30
79760;DHT22;70512;42.122;24.732;2023-09-12T11:49:38;46.30;15.30
79760;DHT22;70512;42.122;24.732;2023-09-12T11:52:15;47.20;15.20
79760;DHT22;70512;42.122;24.732;2023-09-12T11:54:40;48.30;14.60
79760;DHT22;70512;42.122;24.732;2023-09-12T11:57:10;48.90;14.30
79760;DHT22;70512;42.122;24.732;2023-09-12T11:59:43;49.90;14.20
79760;DHT22;70512;42.122;24.732;2023-09-12T12:02:12;50.40;13.20
79760;DHT22;70512;42.122;24.732;2023-09-12T12:04:39;51.00;13.00
79760;DHT22;70512;42.122;24.732;2023-09-12T12:07:08;51.20;13.20
79760;DHT22;70512;42.122;24.732;2023-09-12T12:09:36;51.40;13.00
79760;DHT22;70512;42.122;24.732;2023-09-12T12:12:08;51.50;12.70
79760;DHT22;70512;42.122;24.732;2023-09-12T12:14:34;51.60;12.70
79760;DHT22;70512;42.122;24.732;2023-09-12T12:17:11;51.70;12.80
79760;DHT22;70512;42.122;24.732;2023-09-12T12:19:36;51.70;13.00
79760;DHT22;70512;42.122;24.732;2023-09-12T12:22:05;51.80;12.80
79760;DHT22;70512;42.122;24.732;2023-09-12T12:24:38;51.60;12.90
79760;DHT22;70512;42.122;24.732;2023-09-12T12:27:06;52.00;12.30
79760;DHT22;70512;42.122;24.732;2023-09-12T12:29:36;51.70;12.80
79760;DHT22;70512;42.122;24.732;2023-09-12T12:32:06;51.60;12.70
79760;DHT22;70512;42.122;24.732;2023-09-12T12:34:35;51.80;12.80
79760;DHT22;70512;42.122;24.732;2023-09-12T12:37:03;52.50;12.10
79760;DHT22;70512;42.122;24.732;2023-09-12T12:39:32;52.60;11.80
79760;DHT22;70512;42.122;24.732;2023-09-12T12:42:00;52.70;12.20
79760;DHT22;70512;42.122;24.732;2023-09-12T12:44:32;50.70;13.00
79760;DHT22;70512;42.122;24.732;2023-09-12T12:47:03;49.40;13.20
79760;DHT22;70512;42.122;24.732;2023-09-12T12:49:39;48.60;13.90
79760;DHT22;70512;42.122;24.732;2023-09-12T12:52:10;50.00;13.20
79760;DHT22;70512;42.122;24.732;2023-09-12T12:54:38;50.80;12.80
79760;DHT22;70512;42.122;24.732;2023-09-12T12:57:09;51.20;13.00
79760;DHT22;70512;42.122;24.732;2023-09-12T12:59:43;51.80;12.60
79760;DHT22;70512;42.122;24.732;2023-09-12T13:02:08;51.60;12.60
79760;DHT22;70512;42.122;24.732;2023-09-12T13:04:37;52.00;12.30
79760;DHT22;70512;42.122;24.732;2023-09-12T13:07:05;52.40;12.00
79760;DHT22;70512;42.122;24.732;2023-09-12T13:09:33;52.60;12.10
79760;DHT22;70512;42.122;24.732;2023-09-12T13:12:01;52.50;12.10
79760;DHT22;70512;42.122;24.732;2023-09-12T13:14:28;52.60;11.60
79760;DHT22;70512;42.122;24.732;2023-09-12T13:16:58;52.40;11.70
79760;DHT22;70512;42.122;24.732;2023-09-12T13:19:26;51.10;12.70
79760;DHT22;70512;42.122;24.732;2023-09-12T13:21:53;51.80;12.00
79760;DHT22;70512;42.122;24.732;2023-09-12T13:24:21;51.90;12.00
79760;DHT22;70512;42.122;24.732;2023-09-12T13:26:49;52.40;11.90
79760;DHT22;70512;42.122;24.732;2023-09-12T13:29:17;52.50;11.70
79760;DHT22;70512;42.122;24.732;2023-09-12T13:31:45;52.40;12.40
79760;DHT22;70512;42.122;24.732;2023-09-12T13:34:12;51.90;12.40
79760;DHT22;70512;42.122;24.732;2023-09-12T13:36:40;52.20;12.10
79760;DHT22;70512;42.122;24.732;2023-09-12T13:39:08;52.40;11.90
79760;DHT22;70512;42.122;24.732;2023-09-12T13:41:35;52.70;11.70
79760;DHT22;70512;42.122;24.732;2023-09-12T13:44:03;52.70;11.40
79760;DHT22;70512;42.122;24.732;2023-09-12T13:46:31;52.60;11.20
79760;DHT22;70512;42.122;24.732;2023-09-12T13:48:58;52.70;11.20
79760;DHT22;70512;42.122;24.732;2023-09-12T13:51:28;53.10;11.40
79760;DHT22;70512;42.122;24.732;2023-09-12T13:53:55;53.30;10.70
79760;DHT22;70512;42.122;24.732;2023-09-12T13:56:24;53.60;10.40
79760;DHT22;70512;42.122;24.732;2023-09-12T13:58:51;53.30;11.00
79760;DHT22;70512;42.122;24.732;2023-09-12T14:01:19;53.30;11.10
79760;DHT22;70512;42.122;24.732;2023-09-12T14:03:47;53.20;10.70
79760;DHT22;70512;42.122;24.732;2023-09-12T14:06:14;53.10;10.80
79760;DHT22;70512;42.122;24.732;2023-09-12T14:08:42;52.80;10.80
79760;DHT22;70512;42.122;24.732;2023-09-12T14:11:10;52.90;10.90
79760;DHT22;70512;42.122;24.732;2023-09-12T14:13:38;52.90;10.70
79760;DHT22;70512;42.122;24.732;2023-09-12T14:16:06;52.30;10.80
79760;DHT22;70512;42.122;24.732;2023-09-12T14:18:33;52.30;11.10
79760;DHT22;70512;42.122;24.732;2023-09-12T14:21:01;51.70;11.70
79760;DHT22;70512;42.122;24.732;2023-09-12T14:23:29;50.30;11.90
79760;DHT22;70512;42.122;24.732;2023-09-12T14:25:56;48.50;13.10
79760;DHT22;70512;42.122;24.732;2023-09-12T14:28:24;46.50;14.00
79760;DHT22;70512;42.122;24.732;2023-09-12T14:30:53;45.00;14.90
79760;DHT22;70512;42.122;24.732;2023-09-12T14:33:20;43.40;15.60
79760;DHT22;70512;42.122;24.732;2023-09-12T14:35:48;42.10;16.40
79760;DHT22;70512;42.122;24.732;2023-09-12T14:38:16;41.30;17.00
79760;DHT22;70512;42.122;24.732;2023-09-12T14:40:44;40.90;17.20
79760;DHT22;70512;42.122;24.732;2023-09-12T14:43:12;40.50;17.50
79760;DHT22;70512;42.122;24.732;2023-09-12T14:45:40;40.60;17.60
79760;DHT22;70512;42.122;24.732;2023-09-12T14:48:07;41.10;16.90
79760;DHT22;70512;42.122;24.732;2023-09-12T14:50:35;41.10;17.10
79760;DHT22;70512;42.122;24.732;2023-09-12T14:53:03;40.50;17.30
79760;DHT22;70512;42.122;24.732;2023-09-12T14:55:30;39.90;17.40
79760;DHT22;70512;42.122;24.732;2023-09-12T14:57:58;39.80;17.80
79760;DHT22;70512;42.122;24.732;2023-09-12T15:00:26;39.30;18.50
79760;DHT22;70512;42.122;24.732;2023-09-12T15:02:54;38.60;19.00
79760;DHT22;70512;42.122;24.732;2023-09-12T15:05:22;38.00;19.20
79760;DHT22;70512;42.122;24.732;2023-09-12T15:07:49;37.90;19.10
79760;DHT22;70512;42.122;24.732;2023-09-12T15:10:18;38.00;19.10
79760;DHT22;70512;42.122;24.732;2023-09-12T15:12:45;37.90;19.40
79760;DHT22;70512;42.122;24.732;2023-09-12T15:15:13;37.80;19.70
79760;DHT22;70512;42.122;24.732;2023-09-12T15:17:41;37.60;20.00
79760;DHT22;70512;42.122;24.732;2023-09-12T15:20:09;37.00;20.30
79760;DHT22;70512;42.122;24.732;2023-09-12T15:22:37;36.50;21.20
79760;DHT22;70512;42.122;24.732;2023-09-12T15:25:05;36.50;21.20
79760;DHT22;70512;42.122;24.732;2023-09-12T15:27:33;36.80;20.80